createdAt,value
2023-03-13T00:01:34.720Z,8.90
2023-03-13T00:03:39.299Z,8.91
2023-03-13T00:05:43.839Z,8.90
2023-03-13T00:07:50.963Z,8.89
2023-03-13T00:09:55.968Z,8.92
2023-03-13T00:12:00.486Z,8.91
2023-03-13T00:14:06.024Z,8.94
2023-03-13T00:16:11.651Z,8.94
2023-03-13T00:18:16.276Z,8.94
2023-03-13T00:20:21.056Z,8.97
2023-03-13T00:22:25.592Z,8.96
2023-03-13T00:24:35.042Z,8.94
2023-03-13T00:26:39.818Z,8.97
2023-03-13T00:28:46.041Z,8.97
2023-03-13T00:30:50.795Z,8.98
2023-03-13T00:32:55.600Z,8.99
2023-03-13T00:35:00.229Z,9.00
2023-03-13T00:37:04.749Z,9.02
2023-03-13T00:39:10.077Z,9.00
2023-03-13T00:41:18.070Z,9.01
2023-03-13T00:43:22.651Z,9.02
2023-03-13T00:45:27.189Z,9.01
2023-03-13T00:47:31.865Z,9.03
2023-03-13T00:49:36.393Z,9.04
2023-03-13T00:51:41.003Z,9.03
2023-03-13T00:53:45.900Z,9.04
2023-03-13T00:55:57.316Z,9.03
2023-03-13T00:58:04.545Z,9.02
2023-03-13T01:00:09.901Z,9.01
2023-03-13T01:02:14.615Z,8.97
2023-03-13T01:04:19.272Z,8.96
2023-03-13T01:06:24.941Z,8.95
2023-03-13T01:08:30.093Z,8.95
2023-03-13T01:10:34.633Z,8.96
2023-03-13T01:12:39.216Z,8.94
2023-03-13T01:14:46.344Z,8.93
2023-03-13T01:16:50.965Z,8.96
2023-03-13T01:18:56.353Z,8.95
2023-03-13T01:21:00.963Z,8.94
2023-03-13T01:23:05.541Z,8.97
2023-03-13T01:25:10.991Z,8.97
2023-03-13T01:27:15.470Z,8.95
2023-03-13T01:29:20.483Z,8.94
2023-03-13T01:31:28.910Z,8.92
2023-03-13T01:33:33.608Z,8.90
2023-03-13T01:35:38.205Z,8.87
2023-03-13T01:37:42.997Z,8.86
2023-03-13T01:39:47.611Z,8.84
2023-03-13T01:41:52.430Z,8.84
2023-03-13T01:43:58.295Z,8.87
2023-03-13T01:46:14.036Z,8.87
2023-03-13T01:48:32.496Z,8.83
2023-03-13T01:50:37.048Z,8.87
2023-03-13T01:52:52.665Z,8.84
2023-03-13T01:55:07.911Z,8.89
2023-03-13T01:57:16.438Z,8.92
2023-03-13T01:59:23.346Z,8.91
2023-03-13T02:01:29.585Z,8.92
2023-03-13T02:03:37.751Z,8.95
2023-03-13T02:05:42.770Z,8.98
2023-03-13T02:07:50.146Z,9.00
2023-03-13T02:09:56.179Z,9.00
2023-03-13T02:12:03.863Z,9.00
2023-03-13T02:14:08.518Z,8.98
2023-03-13T02:16:13.870Z,8.99
2023-03-13T02:18:18.660Z,8.98
2023-03-13T02:20:26.953Z,8.98
2023-03-13T02:22:36.419Z,8.98
2023-03-13T02:24:46.045Z,8.97
2023-03-13T02:26:53.174Z,8.92
2023-03-13T02:28:57.780Z,8.94
2023-03-13T02:31:03.123Z,8.84
2023-03-13T02:33:08.463Z,8.86
2023-03-13T02:35:14.111Z,8.87
2023-03-13T02:37:20.319Z,8.87
2023-03-13T02:39:26.295Z,8.84
2023-03-13T02:41:31.694Z,8.84
2023-03-13T02:43:40.826Z,8.86
2023-03-13T02:45:45.483Z,8.89
2023-03-13T02:47:50.177Z,8.90
2023-03-13T02:49:54.857Z,8.90
2023-03-13T02:52:01.135Z,8.91
2023-03-13T02:54:09.621Z,8.91
2023-03-13T02:56:15.350Z,8.93
2023-03-13T02:58:20.457Z,8.90
2023-03-13T03:00:28.218Z,8.89
2023-03-13T03:02:33.343Z,8.87
2023-03-13T03:04:37.950Z,8.84
2023-03-13T03:06:42.560Z,8.85
2023-03-13T03:08:47.207Z,8.82
2023-03-13T03:10:51.883Z,8.83
2023-03-13T03:12:58.156Z,8.77
2023-03-13T03:15:04.822Z,8.80
2023-03-13T03:17:13.262Z,8.81
2023-03-13T03:19:18.000Z,8.76
2023-03-13T03:21:23.951Z,8.78
2023-03-13T03:23:29.577Z,8.77
2023-03-13T03:25:34.161Z,8.73
2023-03-13T03:27:39.282Z,8.76
2023-03-13T03:29:45.876Z,8.78
2023-03-13T03:31:50.527Z,8.80
2023-03-13T03:33:57.732Z,8.79
2023-03-13T03:36:02.869Z,8.79
2023-03-13T03:38:08.346Z,8.77
2023-03-13T03:40:14.504Z,8.80
2023-03-13T03:42:20.238Z,8.81
2023-03-13T03:44:24.939Z,8.81
2023-03-13T03:46:32.877Z,8.88
2023-03-13T03:48:37.657Z,8.87
2023-03-13T03:50:46.900Z,8.88
2023-03-13T03:52:53.027Z,8.91
2023-03-13T03:54:57.734Z,8.94
2023-03-13T03:57:03.221Z,8.91
2023-03-13T03:59:07.966Z,8.84
2023-03-13T04:01:19.446Z,8.88
2023-03-13T04:03:24.317Z,8.87
2023-03-13T04:05:29.410Z,8.90
2023-03-13T04:07:36.540Z,8.86
2023-03-13T04:09:41.321Z,8.90
2023-03-13T04:11:48.719Z,8.91
2023-03-13T04:13:53.565Z,8.89
2023-03-13T04:15:58.106Z,8.89
2023-03-13T04:18:02.736Z,8.88
2023-03-13T04:20:06.388Z,8.90
2023-03-13T04:22:11.031Z,8.88
2023-03-13T04:24:22.973Z,8.91
2023-03-13T04:26:27.900Z,8.89
2023-03-13T04:28:34.073Z,8.93
2023-03-13T04:30:40.502Z,8.98
2023-03-13T04:33:04.044Z,9.00
2023-03-13T04:35:28.570Z,9.01
2023-03-13T04:37:46.172Z,9.04
2023-03-13T04:40:25.650Z,9.05
2023-03-13T04:42:42.797Z,9.08
2023-03-13T04:45:14.545Z,9.14
2023-03-13T04:47:29.498Z,9.16
2023-03-13T04:49:57.212Z,9.20
2023-03-13T04:52:17.239Z,9.24
2023-03-13T04:54:38.398Z,9.24
2023-03-13T04:57:19.330Z,9.27
2023-03-13T04:59:50.053Z,9.26
2023-03-13T05:02:04.366Z,9.25
2023-03-13T05:04:47.125Z,9.30
2023-03-13T05:07:22.874Z,9.35
2023-03-13T05:10:03.136Z,9.35
2023-03-13T05:12:42.233Z,9.37
2023-03-13T05:14:56.546Z,9.39
2023-03-13T05:17:23.981Z,9.40
2023-03-13T05:19:28.518Z,9.40
2023-03-13T05:21:58.785Z,9.37
2023-03-13T05:24:27.421Z,9.39
2023-03-13T05:26:45.241Z,9.36
2023-03-13T05:29:18.483Z,9.41
2023-03-13T05:31:41.410Z,9.40
2023-03-13T05:33:51.645Z,9.40
2023-03-13T05:36:11.417Z,9.40
2023-03-13T05:38:21.920Z,9.42
2023-03-13T05:40:42.929Z,9.39
2023-03-13T05:43:11.782Z,9.36
2023-03-13T05:45:44.868Z,9.39
2023-03-13T05:48:25.077Z,9.39
2023-03-13T05:51:00.127Z,9.41
2023-03-13T05:53:40.224Z,9.47
2023-03-13T05:55:56.013Z,9.49
2023-03-13T05:58:19.279Z,9.55
2023-03-13T06:00:49.788Z,9.59
2023-03-13T06:03:14.472Z,9.64
2023-03-13T06:05:22.340Z,9.67
2023-03-13T06:07:27.089Z,9.70
2023-03-13T06:09:31.781Z,9.72
2023-03-13T06:11:36.950Z,9.71
2023-03-13T06:13:42.953Z,9.74
2023-03-13T06:16:00.901Z,9.80
2023-03-13T06:18:18.847Z,9.84
2023-03-13T06:20:23.467Z,9.87
2023-03-13T06:22:28.074Z,9.85
2023-03-13T06:24:32.713Z,9.89
2023-03-13T06:26:37.252Z,9.90
2023-03-13T06:28:41.885Z,9.97
2023-03-13T06:30:46.445Z,9.98
2023-03-13T06:32:53.738Z,9.97
2023-03-13T06:34:58.310Z,10.00
2023-03-13T06:37:02.910Z,9.94
2023-03-13T06:39:08.330Z,9.93
2023-03-13T06:41:13.065Z,9.99
2023-03-13T06:43:17.601Z,10.02
2023-03-13T06:45:22.283Z,10.09
2023-03-13T06:47:26.846Z,10.10
2023-03-13T06:49:34.054Z,10.15
2023-03-13T06:51:38.715Z,10.16
2023-03-13T06:53:43.327Z,10.20
2023-03-13T06:55:49.229Z,10.22
2023-03-13T06:57:54.207Z,10.23
2023-03-13T06:59:58.725Z,10.21
2023-03-13T07:02:03.262Z,10.27
2023-03-13T07:04:08.174Z,10.28
2023-03-13T07:06:15.409Z,10.31
2023-03-13T07:08:19.934Z,10.33
2023-03-13T07:10:25.186Z,10.35
2023-03-13T07:12:29.760Z,10.35
2023-03-13T07:14:34.302Z,10.38
2023-03-13T07:16:38.985Z,10.45
2023-03-13T07:18:44.983Z,10.50
2023-03-13T07:20:55.099Z,10.50
2023-03-13T07:23:02.258Z,10.55
2023-03-13T07:25:07.254Z,10.62
2023-03-13T07:27:11.871Z,10.70
2023-03-13T07:29:16.397Z,10.75
2023-03-13T07:31:21.895Z,10.77
2023-03-13T07:33:26.491Z,10.85
2023-03-13T07:36:44.878Z,10.92
2023-03-13T07:38:51.206Z,11.00
2023-03-13T07:40:57.631Z,11.06
2023-03-13T07:43:02.411Z,11.14
2023-03-13T07:45:08.720Z,11.17
2023-03-13T07:47:13.632Z,11.22
2023-03-13T07:49:18.478Z,11.24
2023-03-13T07:51:42.207Z,11.30
2023-03-13T07:53:50.658Z,11.36
2023-03-13T07:56:00.881Z,11.45
2023-03-13T07:58:05.692Z,11.49
2023-03-13T08:00:16.624Z,11.52
2023-03-13T08:02:21.496Z,11.62
2023-03-13T08:04:26.683Z,11.67
2023-03-13T08:06:35.628Z,11.79
2023-03-13T08:08:41.555Z,11.76
2023-03-13T08:10:48.921Z,11.82
2023-03-13T08:12:53.784Z,11.88
2023-03-13T08:14:58.790Z,11.94
2023-03-13T08:17:03.753Z,11.96
2023-03-13T08:19:08.620Z,12.00
2023-03-13T08:21:15.284Z,12.02
2023-03-13T08:23:20.141Z,11.99
2023-03-13T08:25:24.972Z,12.11
2023-03-13T08:27:33.102Z,12.14
2023-03-13T08:29:38.051Z,12.19
2023-03-13T08:31:47.671Z,12.27
2023-03-13T08:33:52.890Z,12.37
2023-03-13T08:35:57.404Z,12.26
2023-03-13T08:38:02.778Z,12.33
2023-03-13T08:40:11.452Z,12.42
2023-03-13T08:42:16.621Z,12.34
2023-03-13T08:44:23.725Z,12.36
2023-03-13T08:46:28.929Z,12.41
2023-03-13T08:48:33.509Z,12.44
2023-03-13T08:50:38.291Z,12.44
2023-03-13T08:52:43.090Z,12.56
2023-03-13T08:54:47.890Z,12.61
2023-03-13T08:56:52.703Z,12.72
2023-03-13T08:58:59.068Z,12.81
2023-03-13T09:01:09.155Z,12.92
2023-03-13T09:03:14.021Z,12.98
2023-03-13T09:05:19.474Z,13.03
2023-03-13T09:07:24.497Z,13.05
2023-03-13T09:09:29.286Z,13.10
2023-03-13T09:11:34.685Z,13.18
2023-03-13T09:13:41.539Z,13.28
2023-03-13T09:15:46.376Z,13.35
2023-03-13T09:17:53.875Z,13.50
2023-03-13T09:20:00.939Z,13.65
2023-03-13T09:22:05.973Z,13.70
2023-03-13T09:24:11.610Z,13.77
2023-03-13T09:26:17.330Z,13.79
2023-03-13T09:28:22.444Z,13.90
2023-03-13T09:30:27.243Z,14.01
2023-03-13T09:32:32.169Z,14.01
2023-03-13T09:34:39.573Z,14.06
2023-03-13T09:36:44.419Z,14.14
2023-03-13T09:38:49.621Z,14.19
2023-03-13T09:41:05.657Z,14.18
2023-03-13T09:43:25.965Z,14.27
2023-03-13T09:45:35.478Z,14.35
2023-03-13T09:47:45.883Z,14.40
2023-03-13T09:49:57.186Z,14.54
2023-03-13T09:52:08.592Z,14.71
2023-03-13T09:54:25.247Z,15.00
2023-03-13T09:56:34.923Z,15.10
2023-03-13T09:58:42.194Z,15.23
2023-03-13T10:00:51.550Z,15.09
2023-03-13T10:02:59.796Z,14.79
2023-03-13T10:05:22.082Z,14.50
2023-03-13T10:07:26.882Z,14.53
2023-03-13T10:09:34.106Z,14.62
2023-03-13T10:11:46.273Z,14.57
2023-03-13T10:13:55.318Z,14.51
2023-03-13T10:16:04.147Z,14.55
2023-03-13T10:18:20.562Z,14.64
2023-03-13T10:20:30.400Z,14.58
2023-03-13T10:22:37.585Z,14.57
2023-03-13T10:24:49.083Z,14.45
2023-03-13T10:26:53.852Z,14.50
2023-03-13T10:28:59.576Z,14.49
2023-03-13T10:31:11.742Z,14.49
2023-03-13T10:33:26.178Z,14.40
2023-03-13T10:35:39.715Z,14.43
2023-03-13T10:37:46.330Z,14.29
2023-03-13T10:39:51.143Z,14.26
2023-03-13T10:42:01.902Z,14.21
2023-03-13T10:44:09.305Z,14.24
2023-03-13T10:46:14.184Z,14.20
2023-03-13T10:48:22.659Z,14.21
2023-03-13T10:50:30.381Z,14.23
2023-03-13T10:52:45.641Z,14.33
2023-03-13T10:54:50.649Z,14.31
2023-03-13T10:57:10.317Z,14.26
2023-03-13T10:59:27.030Z,14.21
2023-03-13T11:01:33.896Z,14.23
2023-03-13T11:03:38.804Z,14.25
2023-03-13T11:05:45.400Z,14.25
2023-03-13T11:07:53.695Z,14.28
2023-03-13T11:10:02.738Z,14.32
2023-03-13T11:12:12.518Z,14.36
2023-03-13T11:14:19.975Z,14.52
2023-03-13T11:16:27.218Z,14.61
2023-03-13T11:18:38.234Z,14.68
2023-03-13T11:20:45.657Z,14.87
2023-03-13T11:23:12.198Z,15.09
2023-03-13T11:25:23.760Z,15.28
2023-03-13T11:27:36.670Z,15.38
2023-03-13T11:29:52.072Z,15.49
2023-03-13T11:32:01.784Z,15.42
2023-03-13T11:34:13.882Z,15.40
2023-03-13T11:36:25.748Z,15.49
2023-03-13T11:38:38.244Z,15.53
2023-03-13T11:40:51.742Z,15.38
2023-03-13T11:43:24.521Z,15.32
2023-03-13T11:45:48.570Z,15.27
2023-03-13T11:48:02.623Z,15.25
2023-03-13T11:50:17.376Z,15.11
2023-03-13T11:52:37.893Z,15.14
2023-03-13T11:54:59.687Z,15.03
2023-03-13T11:57:12.403Z,15.04
2023-03-13T11:59:29.362Z,15.01
2023-03-13T12:01:39.751Z,15.14
2023-03-13T12:03:57.153Z,15.20
2023-03-13T12:06:03.401Z,15.16
2023-03-13T12:08:15.393Z,15.06
2023-03-13T12:10:27.105Z,15.20
2023-03-13T12:12:44.644Z,15.39
2023-03-13T12:14:56.289Z,15.47
2023-03-13T12:17:04.728Z,15.51
2023-03-13T12:19:14.532Z,15.70
2023-03-13T12:21:24.775Z,15.50
2023-03-13T12:23:40.193Z,15.70
2023-03-13T12:25:55.301Z,15.79
2023-03-13T12:28:07.783Z,15.88
2023-03-13T12:30:25.470Z,15.90
2023-03-13T12:32:37.347Z,15.90
2023-03-13T12:34:53.302Z,15.99
2023-03-13T12:37:06.970Z,16.11
2023-03-13T12:39:29.640Z,16.06
2023-03-13T12:41:43.504Z,16.00
2023-03-13T12:44:07.379Z,15.96
2023-03-13T12:46:35.007Z,16.04
2023-03-13T12:49:05.763Z,16.10
2023-03-13T12:51:25.651Z,16.16
2023-03-13T12:54:08.805Z,16.22
2023-03-13T12:56:24.737Z,16.20
2023-03-13T12:58:40.510Z,16.26
2023-03-13T13:00:47.869Z,16.30
2023-03-13T13:03:09.467Z,16.35
2023-03-13T13:05:22.102Z,16.42
2023-03-13T13:07:29.707Z,16.55
2023-03-13T13:09:36.589Z,16.71
2023-03-13T13:11:52.386Z,16.84
2023-03-13T13:14:00.136Z,17.01
2023-03-13T13:16:08.284Z,17.16
2023-03-13T13:18:29.260Z,17.25
2023-03-13T13:20:52.836Z,17.24
2023-03-13T13:22:57.760Z,17.17
2023-03-13T13:25:03.882Z,17.20
2023-03-13T13:27:30.942Z,17.19
2023-03-13T13:30:02.073Z,17.17
2023-03-13T13:32:08.652Z,17.10
2023-03-13T13:34:54.291Z,17.09
2023-03-13T13:37:00.308Z,17.13
2023-03-13T13:39:24.037Z,17.14
2023-03-13T13:41:40.469Z,17.17
2023-03-13T13:43:47.392Z,17.10
2023-03-13T13:46:06.122Z,17.10
2023-03-13T13:48:27.894Z,17.04
2023-03-13T13:50:33.491Z,17.02
2023-03-13T13:52:40.029Z,17.05
2023-03-13T13:54:58.665Z,17.12
2023-03-13T13:57:05.245Z,17.20
2023-03-13T13:59:32.691Z,17.30
2023-03-13T14:01:43.319Z,17.41
2023-03-13T14:03:48.406Z,17.47
2023-03-13T14:05:57.107Z,17.54
2023-03-13T14:08:07.837Z,17.57
2023-03-13T14:10:24.331Z,17.70
2023-03-13T14:12:32.119Z,17.76
2023-03-13T14:14:36.879Z,17.84
2023-03-13T14:16:47.624Z,17.92
2023-03-13T14:18:52.449Z,18.00
2023-03-13T14:21:02.729Z,18.03
2023-03-13T14:23:09.562Z,18.13
2023-03-13T14:25:14.351Z,18.18
2023-03-13T14:27:22.189Z,18.22
2023-03-13T14:29:28.573Z,18.21
2023-03-13T14:31:35.451Z,18.21
2023-03-13T14:33:43.015Z,18.26
2023-03-13T14:35:48.881Z,18.29
2023-03-13T14:37:55.333Z,18.29
2023-03-13T14:40:09.732Z,18.26
2023-03-13T14:42:17.566Z,18.25
2023-03-13T14:44:27.333Z,18.28
2023-03-13T14:46:34.415Z,18.34
2023-03-13T14:48:43.347Z,18.47
2023-03-13T14:50:48.430Z,18.55
2023-03-13T14:52:55.259Z,18.49
2023-03-13T14:55:02.353Z,18.50
2023-03-13T14:57:21.260Z,18.45
2023-03-13T14:59:27.862Z,18.40
2023-03-13T15:01:33.462Z,18.33
2023-03-13T15:03:38.276Z,18.24
2023-03-13T15:05:47.530Z,18.18
2023-03-13T15:07:57.246Z,18.11
2023-03-13T15:10:02.131Z,18.02
2023-03-13T15:12:08.690Z,17.93
2023-03-13T15:14:35.781Z,17.95
2023-03-13T15:16:40.648Z,17.84
2023-03-13T15:18:45.521Z,17.82
2023-03-13T15:20:57.775Z,17.76
2023-03-13T15:23:02.661Z,17.72
2023-03-13T15:25:17.309Z,17.69
2023-03-13T15:27:24.422Z,17.66
2023-03-13T15:29:29.283Z,17.63
2023-03-13T15:31:34.854Z,17.61
2023-03-13T15:37:13.433Z,17.53
2023-03-13T15:41:37.970Z,17.52
2023-03-13T15:44:04.183Z,17.58
2023-03-13T15:46:29.620Z,17.71
2023-03-13T15:48:34.665Z,17.81
2023-03-13T15:51:07.282Z,17.83
2023-03-13T15:53:27.790Z,17.87
2023-03-13T15:55:36.003Z,17.85
2023-03-13T15:57:49.605Z,17.81
2023-03-13T16:00:00.496Z,17.77
2023-03-13T16:02:24.323Z,17.70
2023-03-13T16:04:31.074Z,17.61
2023-03-13T16:10:29.797Z,17.42
2023-03-13T16:12:34.887Z,17.37
2023-03-13T16:20:00.437Z,17.29
2023-03-13T16:22:07.579Z,17.22
2023-03-13T16:24:19.812Z,17.21
2023-03-13T16:26:31.558Z,17.18
2023-03-13T16:28:36.358Z,17.18
2023-03-13T16:30:54.931Z,17.19
2023-03-13T16:33:02.850Z,17.15
2023-03-13T16:35:08.791Z,17.11
2023-03-13T16:37:18.168Z,17.08
2023-03-13T16:39:25.524Z,17.07
2023-03-13T16:41:33.342Z,17.07
2023-03-13T16:43:38.260Z,17.03
2023-03-13T16:45:45.173Z,17.00
2023-03-13T16:47:55.877Z,16.97
2023-03-13T16:50:02.265Z,16.93
2023-03-13T16:52:07.091Z,16.89
2023-03-13T16:54:16.296Z,16.85
2023-03-13T16:56:27.310Z,16.84
2023-03-13T16:58:34.631Z,16.77
2023-03-13T17:00:39.544Z,16.71
2023-03-13T17:02:46.417Z,16.68
2023-03-13T17:04:51.442Z,16.65
2023-03-13T17:06:56.352Z,16.62
2023-03-13T17:09:02.428Z,16.57
2023-03-13T17:11:08.406Z,16.52
2023-03-13T17:13:13.249Z,16.42
2023-03-13T17:15:22.774Z,16.36
2023-03-13T17:17:27.728Z,16.32
2023-03-13T17:19:34.881Z,16.27
2023-03-13T17:21:39.678Z,16.22
2023-03-13T17:23:44.931Z,16.22
2023-03-13T17:25:49.658Z,16.14
2023-03-13T17:27:55.210Z,16.07
2023-03-13T17:30:00.033Z,16.01
2023-03-13T17:32:07.725Z,15.99
2023-03-13T17:34:13.171Z,15.96
2023-03-13T17:36:20.572Z,15.92
2023-03-13T17:38:25.468Z,15.88
2023-03-13T17:40:32.698Z,15.84
2023-03-13T17:42:37.556Z,15.79
2023-03-13T17:44:42.980Z,15.78
2023-03-13T17:46:51.208Z,15.75
2023-03-13T17:48:58.746Z,15.76
2023-03-13T17:51:03.545Z,15.72
2023-03-13T17:53:09.074Z,15.74
2023-03-13T17:55:14.646Z,15.75
2023-03-13T17:57:22.241Z,15.75
2023-03-13T17:59:29.386Z,15.75
2023-03-13T18:01:36.992Z,15.79
2023-03-13T18:03:42.122Z,15.78
2023-03-13T18:05:49.242Z,15.70
2023-03-13T18:07:55.306Z,15.73
2023-03-13T18:10:03.345Z,15.74
2023-03-13T18:12:08.790Z,15.71
2023-03-13T18:14:13.898Z,15.68
2023-03-13T18:16:22.764Z,15.59
2023-03-13T18:18:27.918Z,15.61
2023-03-13T18:20:33.641Z,15.56
2023-03-13T18:22:41.018Z,15.55
2023-03-13T18:24:46.683Z,15.54
2023-03-13T18:26:52.355Z,15.52
2023-03-13T18:29:00.297Z,15.51
2023-03-13T18:31:05.201Z,15.51
2023-03-13T18:33:10.069Z,15.48
2023-03-13T18:35:16.465Z,15.45
2023-03-13T18:37:26.305Z,15.40
2023-03-13T18:39:34.805Z,15.39
2023-03-13T18:41:39.626Z,15.34
2023-03-13T18:43:44.416Z,15.33
2023-03-13T18:45:49.371Z,15.32
2023-03-13T18:47:54.231Z,15.29
2023-03-13T18:49:59.181Z,15.31
2023-03-13T18:52:04.025Z,15.26
2023-03-13T18:54:08.841Z,15.25
2023-03-13T18:56:24.852Z,15.30
2023-03-13T18:58:30.453Z,15.31
2023-03-13T19:00:37.053Z,15.30
2023-03-13T19:02:43.683Z,15.32
2023-03-13T19:04:48.808Z,15.29
2023-03-13T19:06:53.419Z,15.23
2023-03-13T19:09:00.332Z,15.20
2023-03-13T19:11:05.157Z,15.19
2023-03-13T19:13:12.574Z,15.19
2023-03-13T19:15:17.546Z,15.17
2023-03-13T19:17:29.116Z,14.89
2023-03-13T19:19:33.927Z,14.58
2023-03-13T19:21:38.729Z,14.64
2023-03-13T19:23:43.645Z,14.46
2023-03-13T19:25:48.384Z,14.13
2023-03-13T19:27:53.228Z,13.99
2023-03-13T19:30:01.299Z,14.00
2023-03-13T19:32:09.244Z,13.95
2023-03-13T19:34:14.533Z,13.82
2023-03-13T19:36:21.902Z,13.75
2023-03-13T19:38:26.760Z,13.64
2023-03-13T19:40:34.159Z,13.53
2023-03-13T19:42:39.069Z,13.19
2023-03-13T19:44:44.435Z,12.98
2023-03-13T19:46:51.696Z,12.77
2023-03-13T19:48:57.870Z,12.62
2023-03-13T19:51:02.633Z,12.55
2023-03-13T19:53:07.606Z,12.50
2023-03-13T19:55:12.926Z,12.61
2023-03-13T19:57:17.746Z,12.63
2023-03-13T19:59:24.093Z,12.67
2023-03-13T20:01:29.690Z,12.65
2023-03-13T20:03:37.102Z,12.64
2023-03-13T20:05:41.964Z,12.67
2023-03-13T20:07:48.406Z,12.65
2023-03-13T20:09:53.189Z,12.75
2023-03-13T20:11:58.050Z,12.67
2023-03-13T20:14:02.830Z,12.28
2023-03-13T20:16:08.330Z,12.11
2023-03-13T20:18:13.392Z,12.03
2023-03-13T20:20:21.419Z,11.82
2023-03-13T20:22:26.226Z,11.61
2023-03-13T20:24:30.979Z,11.46
2023-03-13T20:26:39.046Z,11.36
2023-03-13T20:28:45.408Z,11.47
2023-03-13T20:30:51.945Z,11.50
2023-03-13T20:32:59.952Z,11.67
2023-03-13T20:35:10.423Z,11.71
2023-03-13T20:37:17.896Z,11.77
2023-03-13T20:39:22.754Z,11.80
2023-03-13T20:41:31.493Z,11.89
2023-03-13T20:43:37.577Z,11.94
2023-03-13T20:45:42.480Z,11.93
2023-03-13T20:47:47.528Z,11.85
2023-03-13T20:49:52.414Z,11.71
2023-03-13T20:51:57.254Z,11.62
2023-03-13T20:54:04.771Z,11.67
2023-03-13T20:56:11.630Z,11.73
2023-03-13T20:58:16.593Z,11.81
2023-03-13T21:00:23.446Z,11.84
2023-03-13T21:02:28.233Z,11.95
2023-03-13T21:04:33.291Z,12.02
2023-03-13T21:06:37.923Z,12.08
2023-03-13T21:08:42.977Z,12.14
2023-03-13T21:10:50.403Z,12.21
2023-03-13T21:12:55.304Z,12.28
2023-03-13T21:15:00.115Z,12.35
2023-03-13T21:17:05.325Z,12.41
2023-03-13T21:19:09.846Z,12.39
2023-03-13T21:21:18.749Z,12.38
2023-03-13T21:23:23.655Z,12.32
2023-03-13T21:25:28.691Z,12.30
2023-03-13T21:27:36.788Z,12.32
2023-03-13T21:29:43.995Z,12.36
2023-03-13T21:31:49.583Z,12.30
2023-03-13T21:33:54.469Z,12.21
2023-03-13T21:35:59.297Z,11.73
2023-03-13T21:38:04.201Z,11.33
2023-03-13T21:40:11.493Z,10.94
2023-03-13T21:42:18.003Z,10.74
2023-03-13T21:44:27.387Z,10.55
2023-03-13T21:46:33.257Z,10.51
2023-03-13T21:48:38.189Z,10.47
2023-03-13T21:50:43.043Z,10.32
2023-03-13T21:52:47.866Z,10.20
2023-03-13T21:54:52.916Z,9.94
2023-03-13T21:56:57.863Z,9.93
2023-03-13T21:59:02.794Z,9.82
2023-03-13T22:01:10.707Z,9.80
2023-03-13T22:03:15.871Z,9.88
2023-03-13T22:05:20.844Z,9.95
2023-03-13T22:07:26.312Z,9.97
2023-03-13T22:09:33.108Z,10.07
2023-03-13T22:11:38.139Z,10.22
2023-03-13T22:13:43.025Z,10.26
2023-03-13T22:15:48.133Z,10.37
2023-03-13T22:17:55.572Z,10.47
2023-03-13T22:20:00.401Z,10.57
2023-03-13T22:22:05.361Z,10.53
2023-03-13T22:24:10.500Z,10.56
2023-03-13T22:26:16.877Z,10.56
2023-03-13T22:28:21.745Z,10.53
2023-03-13T22:30:26.542Z,10.58
2023-03-13T22:32:33.338Z,10.66
2023-03-13T22:34:44.984Z,10.67
2023-03-13T22:36:49.859Z,10.63
2023-03-13T22:38:54.720Z,10.63
2023-03-13T22:41:01.192Z,10.60
2023-03-13T22:43:06.035Z,10.58
2023-03-13T22:45:12.376Z,10.49
2023-03-13T22:47:20.143Z,10.49
2023-03-13T22:49:24.969Z,10.40
2023-03-13T22:51:35.247Z,10.31
2023-03-13T22:53:42.394Z,10.18
2023-03-13T22:55:47.204Z,10.03
2023-03-13T22:57:52.049Z,9.96
2023-03-13T22:59:58.555Z,9.91
2023-03-13T23:02:03.386Z,9.88
2023-03-13T23:04:08.298Z,9.86
2023-03-13T23:06:18.795Z,9.84
2023-03-13T23:08:26.225Z,9.80
2023-03-13T23:10:31.216Z,9.77
2023-03-13T23:12:36.253Z,9.82
2023-03-13T23:14:41.056Z,9.80
2023-03-13T23:16:46.047Z,9.71
2023-03-13T23:18:51.619Z,9.72
2023-03-13T23:20:56.802Z,9.78
2023-03-13T23:23:01.843Z,9.71
2023-03-13T23:25:10.311Z,9.67
2023-03-13T23:27:15.127Z,9.66
2023-03-13T23:29:20.024Z,9.71
2023-03-13T23:31:25.320Z,9.71
2023-03-13T23:33:29.996Z,9.68
2023-03-13T23:35:35.514Z,9.71
2023-03-13T23:37:40.078Z,9.72
2023-03-13T23:39:45.152Z,9.67
2023-03-13T23:41:52.631Z,9.75
2023-03-13T23:43:57.442Z,9.75
2023-03-13T23:46:02.242Z,9.77
2023-03-13T23:48:07.596Z,9.78
2023-03-13T23:50:13.573Z,9.77
2023-03-13T23:52:18.395Z,9.75
2023-03-13T23:54:23.348Z,9.75
2023-03-13T23:56:29.702Z,9.72
2023-03-13T23:58:37.516Z,9.78
